Time;durP1;ratioP1;P1;durP2;ratioP2;P2;SDS_P1;SDS_P2;PMS_P1;PMS_P2;Temp;Humidity;BMP_temperature;BMP_pressure;BME280_temperature;BME280_humidity;BME280_pressure;Samples;Min_cycle;Max_cycle;Signal;HPM_P1;HPM_P2
2021/06/06 00:00:16;;;;;;;21.80;19.70;;;;;;;;;;5166482;27;20507;-80
2021/06/06 00:02:43;;;;;;;22.50;20.40;;;;;;;;;;5166951;27;20560;-80
2021/06/06 00:05:11;;;;;;;23.37;21.17;;;;;;;;;;5165793;27;20540;-80
2021/06/06 00:07:39;;;;;;;22.90;20.63;;;;;;;;;;5166221;27;20540;-80
2021/06/06 00:10:07;;;;;;;23.83;21.53;;;;;;;;;;5167261;27;20489;-80
2021/06/06 00:12:34;;;;;;;24.10;21.50;;;;;;;;;;5166994;27;20452;-80
2021/06/06 00:15:04;;;;;;;23.67;21.37;;;;;;;;;;5167124;27;20488;-81
2021/06/06 00:17:31;;;;;;;25.87;23.17;;;;;;;;;;5166193;27;20481;-80
2021/06/06 00:19:59;;;;;;;27.50;24.70;;;;;;;;;;5165813;27;20524;-80
2021/06/06 00:22:26;;;;;;;24.97;22.53;;;;;;;;;;5165146;27;20484;-80
2021/06/06 00:24:53;;;;;;;25.40;23.00;;;;;;;;;;5165812;27;20769;-80
2021/06/06 00:27:21;;;;;;;24.60;22.10;;;;;;;;;;5163122;27;20558;-80
2021/06/06 00:29:48;;;;;;;26.93;24.10;;;;;;;;;;5165773;27;20447;-80
2021/06/06 00:32:17;;;;;;;29.43;26.57;;;;;;;;;;5165560;27;20551;-80
2021/06/06 00:34:44;;;;;;;27.23;24.07;;;;;;;;;;5165434;27;20899;-80
2021/06/06 00:37:12;;;;;;;27.33;24.73;;;;;;;;;;5165208;27;20520;-80
2021/06/06 00:39:39;;;;;;;26.63;24.20;;;;;;;;;;5165706;27;20506;-80
2021/06/06 00:42:06;;;;;;;25.10;22.80;;;;;;;;;;5165609;27;20487;-80
2021/06/06 00:44:34;;;;;;;25.50;23.00;;;;;;;;;;5165317;27;20738;-79
2021/06/06 00:47:01;;;;;;;28.43;23.80;;;;;;;;;;5165910;27;20573;-80
2021/06/06 00:49:30;;;;;;;25.60;23.00;;;;;;;;;;5165005;27;20449;-78
2021/06/06 00:51:58;;;;;;;25.47;22.97;;;;;;;;;;5165676;27;20503;-78
2021/06/06 00:54:27;;;;;;;24.60;22.10;;;;;;;;;;5166734;27;20805;-80
2021/06/06 00:56:55;;;;;;;24.67;22.17;;;;;;;;;;5165755;27;20783;-80
2021/06/06 00:59:24;;;;;;;25.03;22.53;;;;;;;;;;5166040;27;20657;-80
2021/06/06 01:01:51;;;;;;;25.13;22.63;;;;;;;;;;5166622;27;20583;-79
2021/06/06 01:04:19;;;;;;;26.53;23.87;;;;;;;;;;5166067;27;20528;-80
2021/06/06 01:06:49;;;;;;;26.83;24.13;;;;;;;;;;5167666;27;20908;-79
2021/06/06 01:09:17;;;;;;;24.97;22.20;;;;;;;;;;5168955;27;20484;-79
2021/06/06 01:11:47;;;;;;;25.97;23.37;;;;;;;;;;5169453;27;20501;-79
2021/06/06 01:14:17;;;;;;;24.23;21.73;;;;;;;;;;5168822;27;20488;-79
2021/06/06 01:16:45;;;;;;;27.60;24.70;;;;;;;;;;5168531;27;20453;-78
2021/06/06 01:19:14;;;;;;;25.80;23.10;;;;;;;;;;5167377;27;20448;-79
2021/06/06 01:21:49;;;;;;;30.97;27.70;;;;;;;;;;5169464;27;20461;-79
2021/06/06 01:24:20;;;;;;;29.23;25.97;;;;;;;;;;5164554;27;20463;-79
2021/06/06 01:26:49;;;;;;;28.77;25.90;;;;;;;;;;5164712;27;20493;-80
2021/06/06 01:29:37;;;;;;;31.60;28.37;;;;;;;;;;5164942;27;20458;-78
2021/06/06 01:32:07;;;;;;;29.90;26.87;;;;;;;;;;5157036;27;20511;-77
2021/06/06 01:34:35;;;;;;;29.13;26.10;;;;;;;;;;5165893;27;20547;-80
2021/06/06 01:37:04;;;;;;;30.53;27.20;;;;;;;;;;5165589;27;20460;-79
2021/06/06 01:39:34;;;;;;;31.20;28.07;;;;;;;;;;5165304;27;20451;-79
2021/06/06 01:42:03;;;;;;;29.67;26.60;;;;;;;;;;5164293;27;20495;-80
2021/06/06 01:44:32;;;;;;;28.23;25.37;;;;;;;;;;5163499;27;20473;-80
2021/06/06 01:47:05;;;;;;;28.13;25.13;;;;;;;;;;5164018;27;20559;-79
2021/06/06 01:49:33;;;;;;;29.53;26.43;;;;;;;;;;5164985;27;20453;-79
2021/06/06 01:52:03;;;;;;;28.47;25.17;;;;;;;;;;5164365;27;20460;-79
2021/06/06 01:54:32;;;;;;;27.23;24.40;;;;;;;;;;5164545;27;20464;-79
2021/06/06 01:57:01;;;;;;;28.50;25.70;;;;;;;;;;5164766;27;20506;-79
2021/06/06 01:59:31;;;;;;;28.90;24.97;;;;;;;;;;5164780;27;20484;-80
2021/06/06 02:01:58;;;;;;;28.30;25.23;;;;;;;;;;5165075;27;20923;-78
2021/06/06 02:04:25;;;;;;;28.80;26.00;;;;;;;;;;5163690;27;20908;-78
2021/06/06 02:06:55;;;;;;;28.50;25.50;;;;;;;;;;5165687;27;20472;-79
2021/06/06 02:09:24;;;;;;;27.17;24.37;;;;;;;;;;5164214;27;20449;-78
2021/06/06 02:11:52;;;;;;;29.97;26.83;;;;;;;;;;5164538;27;20548;-79
2021/06/06 02:14:22;;;;;;;28.03;25.10;;;;;;;;;;5164914;27;20460;-77
2021/06/06 02:16:50;;;;;;;30.50;26.27;;;;;;;;;;5164116;27;20503;-79
2021/06/06 02:19:18;;;;;;;29.10;26.00;;;;;;;;;;5163832;27;20540;-79
2021/06/06 02:21:45;;;;;;;26.90;24.03;;;;;;;;;;5163917;27;20568;-79
2021/06/06 02:24:12;;;;;;;29.23;26.27;;;;;;;;;;5163557;27;20485;-79
2021/06/06 02:26:44;;;;;;;30.03;26.73;;;;;;;;;;5163438;27;20799;-79
2021/06/06 02:29:16;;;;;;;28.17;25.27;;;;;;;;;;5164509;27;20841;-78
2021/06/06 02:31:47;;;;;;;27.47;24.47;;;;;;;;;;5162981;27;20464;-79
2021/06/06 02:34:19;;;;;;;28.30;25.40;;;;;;;;;;5164203;27;20464;-79
2021/06/06 02:36:50;;;;;;;25.73;23.20;;;;;;;;;;5164219;27;20488;-79
2021/06/06 02:39:19;;;;;;;28.67;24.37;;;;;;;;;;5162756;27;20481;-78
2021/06/06 02:41:48;;;;;;;26.27;23.67;;;;;;;;;;5164114;27;20544;-79
2021/06/06 02:44:17;;;;;;;28.57;25.20;;;;;;;;;;5163966;27;20485;-78
2021/06/06 02:46:46;;;;;;;27.53;24.80;;;;;;;;;;5165706;27;20563;-79
2021/06/06 02:49:16;;;;;;;28.00;24.77;;;;;;;;;;5164730;27;20802;-77
2021/06/06 02:51:45;;;;;;;27.50;24.60;;;;;;;;;;5165675;27;20916;-79
2021/06/06 02:54:15;;;;;;;26.77;24.17;;;;;;;;;;5167848;27;20448;-77
2021/06/06 02:56:45;;;;;;;30.60;26.40;;;;;;;;;;5168616;27;20457;-79
2021/06/06 02:59:13;;;;;;;27.73;24.83;;;;;;;;;;5169617;27;20488;-77
2021/06/06 03:01:43;;;;;;;28.37;25.43;;;;;;;;;;5168990;27;20448;-78
2021/06/06 03:04:13;;;;;;;26.97;24.33;;;;;;;;;;5168779;27;20452;-78
2021/06/06 03:06:44;;;;;;;29.03;26.07;;;;;;;;;;5170863;27;20456;-79
2021/06/06 03:09:12;;;;;;;27.73;24.83;;;;;;;;;;5169856;27;20456;-79
2021/06/06 03:11:41;;;;;;;28.47;25.47;;;;;;;;;;5166100;27;20485;-78
2021/06/06 03:14:10;;;;;;;28.77;25.77;;;;;;;;;;5167207;27;20976;-80
2021/06/06 03:16:39;;;;;;;28.00;25.23;;;;;;;;;;5165878;27;20551;-80
2021/06/06 03:19:08;;;;;;;27.43;24.63;;;;;;;;;;5167750;27;20540;-80
2021/06/06 03:21:38;;;;;;;28.83;25.87;;;;;;;;;;5166489;27;20460;-80
2021/06/06 03:24:07;;;;;;;30.47;27.30;;;;;;;;;;5166743;27;20468;-80
2021/06/06 03:26:35;;;;;;;30.43;27.20;;;;;;;;;;5166860;27;20461;-78
2021/06/06 03:29:03;;;;;;;30.33;26.97;;;;;;;;;;5166475;27;20455;-78
2021/06/06 03:31:32;;;;;;;32.77;29.23;;;;;;;;;;5155044;27;20460;-79
2021/06/06 03:34:00;;;;;;;29.97;26.90;;;;;;;;;;5146851;27;20453;-79
2021/06/06 03:36:29;;;;;;;32.80;25.37;;;;;;;;;;5148609;27;20520;-79
2021/06/06 03:38:58;;;;;;;30.17;26.13;;;;;;;;;;5147561;27;20481;-79
2021/06/06 03:41:26;;;;;;;30.37;27.27;;;;;;;;;;5147172;27;20457;-78
2021/06/06 03:43:53;;;;;;;32.77;28.30;;;;;;;;;;5148397;27;20986;-78
2021/06/06 03:46:21;;;;;;;32.47;29.03;;;;;;;;;;5149234;27;20544;-80
2021/06/06 03:48:48;;;;;;;31.23;27.87;;;;;;;;;;5148500;27;20514;-79
2021/06/06 03:51:15;;;;;;;31.57;28.27;;;;;;;;;;5152347;27;20493;-79
2021/06/06 03:53:43;;;;;;;31.23;28.03;;;;;;;;;;5154165;27;20866;-79
2021/06/06 03:56:12;;;;;;;32.10;28.70;;;;;;;;;;5149156;27;20525;-78
2021/06/06 03:58:40;;;;;;;31.87;28.53;;;;;;;;;;5147252;27;20522;-76
2021/06/06 04:01:07;;;;;;;31.30;28.07;;;;;;;;;;5150406;27;20948;-80
2021/06/06 04:03:35;;;;;;;32.43;29.03;;;;;;;;;;5168294;27;20476;-79
2021/06/06 04:06:02;;;;;;;32.30;28.87;;;;;;;;;;5167160;27;20762;-79
2021/06/06 04:08:30;;;;;;;31.03;26.20;;;;;;;;;;5166409;27;20872;-79
2021/06/06 04:10:57;;;;;;;32.20;28.90;;;;;;;;;;5170340;27;20468;-79
2021/06/06 04:13:27;;;;;;;34.47;30.77;;;;;;;;;;5168696;27;20532;-79
2021/06/06 04:15:54;;;;;;;33.73;30.03;;;;;;;;;;5166055;27;20583;-79
2021/06/06 04:18:23;;;;;;;33.80;29.97;;;;;;;;;;5165638;27;20881;-79
2021/06/06 04:20:51;;;;;;;32.63;28.90;;;;;;;;;;5164997;27;20520;-79
2021/06/06 04:23:19;;;;;;;36.80;32.77;;;;;;;;;;5164843;27;20769;-80
2021/06/06 04:25:46;;;;;;;35.23;31.00;;;;;;;;;;5165434;27;20495;-79
2021/06/06 04:28:13;;;;;;;34.20;30.50;;;;;;;;;;5164906;27;20856;-79
2021/06/06 04:30:42;;;;;;;35.80;31.53;;;;;;;;;;5165197;27;20484;-78
2021/06/06 04:33:09;;;;;;;36.23;32.23;;;;;;;;;;5164853;27;20453;-79
2021/06/06 04:35:37;;;;;;;36.60;31.63;;;;;;;;;;5165312;27;20488;-79
2021/06/06 04:38:04;;;;;;;35.57;31.67;;;;;;;;;;5164467;27;20495;-79
2021/06/06 04:40:31;;;;;;;38.53;32.80;;;;;;;;;;5164522;27;20559;-79
2021/06/06 04:42:59;;;;;;;40.30;32.00;;;;;;;;;;5165225;27;20766;-79
2021/06/06 04:45:26;;;;;;;40.40;34.37;;;;;;;;;;5165158;27;20548;-79
2021/06/06 04:47:54;;;;;;;42.57;35.93;;;;;;;;;;5163845;27;20541;-79
2021/06/06 04:50:22;;;;;;;42.53;32.87;;;;;;;;;;5164644;27;20808;-79
2021/06/06 04:52:49;;;;;;;45.57;38.00;;;;;;;;;;5164698;27;20464;-79
2021/06/06 04:55:17;;;;;;;43.70;36.57;;;;;;;;;;5164166;27;20536;-79
2021/06/06 04:57:44;;;;;;;42.63;35.10;;;;;;;;;;5164165;27;20489;-79
2021/06/06 05:00:14;;;;;;;47.53;37.90;;;;;;;;;;5163571;27;20540;-79
2021/06/06 05:02:41;;;;;;;45.43;39.47;;;;;;;;;;5163650;27;20521;-79
2021/06/06 05:05:11;;;;;;;53.83;39.13;;;;;;;;;;5163554;27;20825;-80
2021/06/06 05:07:38;;;;;;;52.40;39.67;;;;;;;;;;5163232;27;20555;-79
2021/06/06 05:10:07;;;;;;;56.17;40.27;;;;;;;;;;5162914;27;20449;-79
2021/06/06 05:12:34;;;;;;;57.60;41.60;;;;;;;;;;5163091;27;20905;-79
2021/06/06 05:15:01;;;;;;;51.00;41.03;;;;;;;;;;5162260;27;20525;-79
2021/06/06 05:17:28;;;;;;;61.23;43.83;;;;;;;;;;5162664;27;20897;-80
2021/06/06 05:19:56;;;;;;;59.10;43.43;;;;;;;;;;5165487;27;20449;-79
2021/06/06 05:22:25;;;;;;;61.97;45.60;;;;;;;;;;5166021;27;20500;-79
2021/06/06 05:24:52;;;;;;;63.30;45.63;;;;;;;;;;5165553;27;20743;-79
2021/06/06 05:27:19;;;;;;;63.03;46.60;;;;;;;;;;5166822;27;20477;-79
2021/06/06 05:29:46;;;;;;;65.40;46.80;;;;;;;;;;5164969;27;20552;-79
2021/06/06 05:32:13;;;;;;;70.10;42.87;;;;;;;;;;5166154;27;20528;-78
2021/06/06 05:34:42;;;;;;;76.50;51.87;;;;;;;;;;5170320;27;20455;-79
2021/06/06 05:37:09;;;;;;;74.00;50.10;;;;;;;;;;5162482;27;20453;-79
2021/06/06 05:39:38;;;;;;;75.50;51.77;;;;;;;;;;5162045;27;20476;-79
2021/06/06 05:42:05;;;;;;;75.57;49.70;;;;;;;;;;5163564;27;20524;-79
2021/06/06 05:44:33;;;;;;;74.00;52.33;;;;;;;;;;5162759;27;20460;-78
2021/06/06 05:47:00;;;;;;;76.40;51.13;;;;;;;;;;5162917;27;20536;-79
2021/06/06 05:49:27;;;;;;;82.33;52.30;;;;;;;;;;5162300;27;20479;-79
2021/06/06 05:51:54;;;;;;;81.67;53.27;;;;;;;;;;5163212;27;20903;-78
2021/06/06 05:54:21;;;;;;;70.43;46.83;;;;;;;;;;5162646;27;20535;-79
2021/06/06 05:56:50;;;;;;;73.13;49.47;;;;;;;;;;5162252;27;20788;-79
2021/06/06 05:59:17;;;;;;;69.37;48.13;;;;;;;;;;5162618;27;20529;-79
2021/06/06 06:01:45;;;;;;;63.77;46.47;;;;;;;;;;5162142;27;20833;-79
2021/06/06 06:04:12;;;;;;;62.17;42.90;;;;;;;;;;5162616;27;20488;-79
2021/06/06 06:06:39;;;;;;;64.97;46.27;;;;;;;;;;5162815;27;20460;-79
2021/06/06 06:09:07;;;;;;;60.07;44.40;;;;;;;;;;5161975;27;20876;-79
2021/06/06 06:11:34;;;;;;;62.57;45.07;;;;;;;;;;5162890;27;20537;-79
2021/06/06 06:14:03;;;;;;;57.57;41.67;;;;;;;;;;5162216;27;20505;-79
2021/06/06 06:16:32;;;;;;;58.10;42.07;;;;;;;;;;5162308;27;20863;-79
2021/06/06 06:19:01;;;;;;;65.80;45.73;;;;;;;;;;5162723;27;20891;-78
2021/06/06 06:21:29;;;;;;;56.60;41.00;;;;;;;;;;5161675;27;20471;-79
2021/06/06 06:23:57;;;;;;;51.27;39.53;;;;;;;;;;5162986;27;20853;-80
2021/06/06 06:26:30;;;;;;;50.50;39.53;;;;;;;;;;5163185;27;20544;-80
2021/06/06 06:28:57;;;;;;;51.10;39.27;;;;;;;;;;5168622;27;20449;-79
2021/06/06 06:31:26;;;;;;;47.67;35.23;;;;;;;;;;5169587;27;20456;-80
2021/06/06 06:33:53;;;;;;;53.20;36.70;;;;;;;;;;5168686;27;20525;-79
2021/06/06 06:36:21;;;;;;;48.40;36.57;;;;;;;;;;5169154;27;20480;-79
2021/06/06 06:38:50;;;;;;;48.37;33.97;;;;;;;;;;5170154;27;20476;-79
2021/06/06 06:41:17;;;;;;;46.83;35.00;;;;;;;;;;5168801;27;20464;-79
2021/06/06 06:43:44;;;;;;;48.87;33.97;;;;;;;;;;5170452;27;20733;-79
2021/06/06 06:46:12;;;;;;;49.20;35.10;;;;;;;;;;5170015;27;20492;-80
2021/06/06 06:48:42;;;;;;;50.83;37.60;;;;;;;;;;5170429;27;20597;-78
2021/06/06 06:51:13;;;;;;;46.03;36.20;;;;;;;;;;5172647;27;20536;-79
2021/06/06 06:53:40;;;;;;;45.53;36.60;;;;;;;;;;5170794;27;20463;-79
2021/06/06 06:56:08;;;;;;;46.00;33.70;;;;;;;;;;5172558;27;20679;-79
2021/06/06 06:58:36;;;;;;;45.70;33.77;;;;;;;;;;5171113;27;20512;-79
2021/06/06 07:01:03;;;;;;;41.30;34.20;;;;;;;;;;5173395;27;20864;-80
2021/06/06 07:03:32;;;;;;;49.80;35.10;;;;;;;;;;5173784;27;20495;-80
2021/06/06 07:06:02;;;;;;;44.00;32.90;;;;;;;;;;5173506;27;20472;-80
2021/06/06 07:08:29;;;;;;;41.70;32.80;;;;;;;;;;5173969;27;20453;-80
2021/06/06 07:10:57;;;;;;;43.77;34.03;;;;;;;;;;5172523;27;20488;-80
2021/06/06 07:13:25;;;;;;;44.77;34.83;;;;;;;;;;5174738;27;20471;-80
2021/06/06 07:15:57;;;;;;;42.37;32.27;;;;;;;;;;5174889;27;20452;-80
2021/06/06 07:18:24;;;;;;;42.03;32.80;;;;;;;;;;5174404;27;20492;-80
2021/06/06 07:20:53;;;;;;;41.87;33.40;;;;;;;;;;5175283;27;20515;-79
2021/06/06 07:23:23;;;;;;;43.73;36.13;;;;;;;;;;5174603;27;20770;-81
2021/06/06 07:25:50;;;;;;;49.13;35.00;;;;;;;;;;5175157;27;20449;-78
2021/06/06 07:28:19;;;;;;;42.63;34.20;;;;;;;;;;5173647;27;20856;-79
2021/06/06 07:30:48;;;;;;;44.80;34.93;;;;;;;;;;5174310;27;20516;-80
2021/06/06 07:33:15;;;;;;;44.00;35.50;;;;;;;;;;5174386;27;20500;-80
2021/06/06 07:35:43;;;;;;;45.73;34.50;;;;;;;;;;5171796;27;20827;-80
2021/06/06 07:38:10;;;;;;;44.30;33.60;;;;;;;;;;5170523;27;20483;-80
2021/06/06 07:40:40;;;;;;;44.17;33.10;;;;;;;;;;5168877;27;20502;-80
2021/06/06 07:43:08;;;;;;;42.73;32.20;;;;;;;;;;5169665;27;20485;-80
2021/06/06 07:45:35;;;;;;;45.53;34.27;;;;;;;;;;5169685;27;20452;-80
2021/06/06 07:48:03;;;;;;;48.53;34.70;;;;;;;;;;5168746;27;20505;-80
2021/06/06 07:50:31;;;;;;;43.53;31.23;;;;;;;;;;5170168;27;20452;-81
2021/06/06 07:53:05;;;;;;;43.17;32.80;;;;;;;;;;5169078;27;20550;-80
2021/06/06 07:55:33;;;;;;;48.40;35.40;;;;;;;;;;5171462;27;20522;-80
2021/06/06 07:58:02;;;;;;;45.07;36.40;;;;;;;;;;5171586;27;20457;-80
2021/06/06 08:00:31;;;;;;;44.70;34.47;;;;;;;;;;5170544;27;20524;-80
2021/06/06 08:02:58;;;;;;;45.20;32.17;;;;;;;;;;5169206;27;20973;-80
2021/06/06 08:05:26;;;;;;;47.03;33.63;;;;;;;;;;5172645;27;20449;-79
2021/06/06 08:07:54;;;;;;;42.83;33.57;;;;;;;;;;5173104;27;20521;-79
2021/06/06 08:10:23;;;;;;;48.30;32.37;;;;;;;;;;5172259;27;20445;-79
2021/06/06 08:12:50;;;;;;;47.67;32.27;;;;;;;;;;5170585;27;20495;-79
2021/06/06 08:15:20;;;;;;;41.47;33.53;;;;;;;;;;5170153;27;20809;-79
2021/06/06 08:17:47;;;;;;;40.53;30.23;;;;;;;;;;5170166;27;20480;-80
2021/06/06 08:20:16;;;;;;;46.37;31.47;;;;;;;;;;5169391;27;20476;-80
2021/06/06 08:22:44;;;;;;;42.77;30.17;;;;;;;;;;5168282;27;20547;-80
2021/06/06 08:25:13;;;;;;;45.37;30.33;;;;;;;;;;5170738;27;20457;-79
2021/06/06 08:27:43;;;;;;;41.67;30.83;;;;;;;;;;5170724;27;20457;-79
2021/06/06 08:30:12;;;;;;;46.07;31.30;;;;;;;;;;5168790;27;20505;-79
2021/06/06 08:32:40;;;;;;;42.57;31.53;;;;;;;;;;5168231;27;20469;-79
2021/06/06 08:35:08;;;;;;;46.00;31.47;;;;;;;;;;5167170;27;20480;-78
2021/06/06 08:37:36;;;;;;;41.23;29.00;;;;;;;;;;5169498;27;20965;-79
2021/06/06 08:40:03;;;;;;;47.97;33.53;;;;;;;;;;5169483;27;20453;-79
2021/06/06 08:42:32;;;;;;;43.90;31.23;;;;;;;;;;5169596;27;20456;-80
2021/06/06 08:45:03;;;;;;;38.97;29.37;;;;;;;;;;5170872;27;20453;-80
2021/06/06 08:47:32;;;;;;;53.47;33.57;;;;;;;;;;5169712;27;20497;-80
2021/06/06 08:50:01;;;;;;;47.80;32.63;;;;;;;;;;5168875;27;20453;-79
2021/06/06 08:52:35;;;;;;;47.60;34.30;;;;;;;;;;5168190;27;20452;-79
2021/06/06 08:55:07;;;;;;;44.07;31.23;;;;;;;;;;5170906;27;20448;-79
2021/06/06 08:57:37;;;;;;;39.80;29.30;;;;;;;;;;5170644;27;20486;-80
2021/06/06 09:00:08;;;;;;;43.10;29.87;;;;;;;;;;5171688;27;20449;-79
2021/06/06 09:02:37;;;;;;;45.77;31.40;;;;;;;;;;5172648;27;20484;-79
2021/06/06 09:05:09;;;;;;;42.90;29.77;;;;;;;;;;5171767;27;20497;-79
2021/06/06 09:07:38;;;;;;;43.67;30.87;;;;;;;;;;5170747;27;20472;-79
2021/06/06 09:10:07;;;;;;;41.17;29.90;;;;;;;;;;5169053;27;20464;-79
2021/06/06 09:12:35;;;;;;;41.27;28.90;;;;;;;;;;5169429;27;20455;-79
2021/06/06 09:15:02;;;;;;;42.00;30.43;;;;;;;;;;5167855;27;20457;-80
2021/06/06 09:17:37;;;;;;;40.10;29.80;;;;;;;;;;5168775;27;20463;-80
2021/06/06 09:20:08;;;;;;;37.73;28.03;;;;;;;;;;5166046;27;20448;-80
2021/06/06 09:22:38;;;;;;;39.30;27.77;;;;;;;;;;5166975;27;20452;-79
2021/06/06 09:25:10;;;;;;;42.63;28.97;;;;;;;;;;5167781;27;20452;-79
2021/06/06 09:27:38;;;;;;;35.80;28.37;;;;;;;;;;5168930;27;20453;-79
2021/06/06 09:30:07;;;;;;;37.23;28.23;;;;;;;;;;5169929;27;20452;-79
2021/06/06 09:32:34;;;;;;;36.20;27.03;;;;;;;;;;5169048;27;20521;-78
2021/06/06 09:35:10;;;;;;;36.10;28.07;;;;;;;;;;5170420;27;20521;-77
2021/06/06 09:37:44;;;;;;;34.60;25.97;;;;;;;;;;5169703;27;20536;-79
2021/06/06 09:40:12;;;;;;;32.70;25.40;;;;;;;;;;5166923;27;20474;-78
2021/06/06 09:42:41;;;;;;;37.10;25.80;;;;;;;;;;5183727;27;20523;-78
2021/06/06 09:45:11;;;;;;;37.70;26.63;;;;;;;;;;5170920;27;20460;-77
2021/06/06 09:47:39;;;;;;;31.83;25.70;;;;;;;;;;5167310;27;20475;-77
2021/06/06 09:50:10;;;;;;;33.17;25.10;;;;;;;;;;5147097;27;20669;-77
2021/06/06 09:52:41;;;;;;;32.97;25.67;;;;;;;;;;5176341;27;20798;-78
2021/06/06 09:55:15;;;;;;;36.53;27.13;;;;;;;;;;5188449;27;20437;-79
2021/06/06 09:57:43;;;;;;;31.07;26.20;;;;;;;;;;5188108;27;20456;-77
2021/06/06 10:00:13;;;;;;;31.40;24.20;;;;;;;;;;5185996;27;20476;-78
2021/06/06 10:02:41;;;;;;;33.13;25.53;;;;;;;;;;5184290;27;20471;-81
2021/06/06 10:05:14;;;;;;;37.77;27.90;;;;;;;;;;5186282;27;20539;-78
2021/06/06 10:07:43;;;;;;;34.70;26.30;;;;;;;;;;5185503;27;20550;-81
2021/06/06 10:10:12;;;;;;;34.90;23.67;;;;;;;;;;5186340;27;20448;-80
2021/06/06 10:12:44;;;;;;;32.87;24.70;;;;;;;;;;5187311;27;20455;-79
2021/06/06 10:15:14;;;;;;;33.40;22.83;;;;;;;;;;5190436;27;20483;-77
2021/06/06 10:17:43;;;;;;;28.60;22.73;;;;;;;;;;5186167;27;20456;-78
2021/06/06 10:20:16;;;;;;;29.30;22.70;;;;;;;;;;5188464;27;20737;-80
2021/06/06 10:22:45;;;;;;;33.80;24.57;;;;;;;;;;5186940;27;20896;-80
2021/06/06 10:25:16;;;;;;;33.87;22.70;;;;;;;;;;5189318;27;20463;-80
2021/06/06 10:27:46;;;;;;;36.00;24.37;;;;;;;;;;5187211;27;20898;-81
2021/06/06 10:30:14;;;;;;;35.17;23.57;;;;;;;;;;5187459;27;20454;-80
2021/06/06 10:32:44;;;;;;;36.43;25.20;;;;;;;;;;5185490;27;20451;-80
2021/06/06 10:35:12;;;;;;;35.13;24.37;;;;;;;;;;5188219;27;20436;-81
2021/06/06 10:37:41;;;;;;;32.20;23.70;;;;;;;;;;5186659;27;20508;-80
2021/06/06 10:40:10;;;;;;;34.70;24.20;;;;;;;;;;5186228;27;20463;-80
2021/06/06 10:42:40;;;;;;;34.90;23.63;;;;;;;;;;5187283;27;20498;-79
2021/06/06 10:45:09;;;;;;;31.23;21.90;;;;;;;;;;5185283;27;20479;-79
2021/06/06 10:47:42;;;;;;;36.07;22.20;;;;;;;;;;5186206;27;20471;-80
2021/06/06 10:50:17;;;;;;;30.87;21.27;;;;;;;;;;5185729;27;20463;-79
2021/06/06 10:52:49;;;;;;;31.60;22.57;;;;;;;;;;5185611;27;20975;-80
2021/06/06 10:55:20;;;;;;;35.37;21.47;;;;;;;;;;5185456;27;20531;-80
2021/06/06 10:57:48;;;;;;;34.50;20.73;;;;;;;;;;5168593;27;20472;-80
2021/06/06 11:00:27;;;;;;;32.03;20.87;;;;;;;;;;5186916;27;20860;-80
2021/06/06 11:02:56;;;;;;;29.83;21.20;;;;;;;;;;5173432;27;20503;-81
2021/06/06 11:05:35;;;;;;;32.17;21.93;;;;;;;;;;5187135;27;20783;-79
2021/06/06 11:08:18;;;;;;;28.37;20.63;;;;;;;;;;5182266;27;20499;-79
2021/06/06 11:10:48;;;;;;;30.43;19.07;;;;;;;;;;5167002;27;20463;-79
2021/06/06 11:13:31;;;;;;;30.30;20.33;;;;;;;;;;5165641;27;20453;-79
2021/06/06 11:15:59;;;;;;;24.30;18.30;;;;;;;;;;5144361;27;20484;-80
2021/06/06 11:18:27;;;;;;;25.87;19.30;;;;;;;;;;5149971;27;20487;-80
2021/06/06 11:20:59;;;;;;;25.03;18.70;;;;;;;;;;5149470;27;20449;-80
2021/06/06 11:23:36;;;;;;;24.50;18.07;;;;;;;;;;5149297;27;20481;-80
2021/06/06 11:26:16;;;;;;;25.37;18.40;;;;;;;;;;5150587;27;20449;-79
2021/06/06 11:28:44;;;;;;;25.17;17.73;;;;;;;;;;5164662;27;20524;-79
2021/06/06 11:31:21;;;;;;;25.13;18.10;;;;;;;;;;5171757;27;20614;-80
2021/06/06 11:33:57;;;;;;;26.93;19.00;;;;;;;;;;5171370;27;20887;-79
2021/06/06 11:36:28;;;;;;;24.77;18.40;;;;;;;;;;5168275;27;20449;-79
2021/06/06 11:38:57;;;;;;;22.80;17.80;;;;;;;;;;5168712;27;20737;-79
2021/06/06 11:41:33;;;;;;;24.07;17.17;;;;;;;;;;5169085;27;20449;-80
2021/06/06 11:44:09;;;;;;;23.53;17.00;;;;;;;;;;5167264;27;20943;-80
2021/06/06 11:46:39;;;;;;;23.90;18.70;;;;;;;;;;5166852;27;20864;-79
2021/06/06 11:49:21;;;;;;;23.20;17.73;;;;;;;;;;5142959;27;20551;-80
2021/06/06 11:51:52;;;;;;;22.83;15.90;;;;;;;;;;5146933;27;20457;-79
2021/06/06 11:54:26;;;;;;;25.37;18.80;;;;;;;;;;5144399;27;20465;-78
2021/06/06 11:56:54;;;;;;;24.40;18.73;;;;;;;;;;5145881;27;20454;-80
2021/06/06 11:59:26;;;;;;;28.33;19.07;;;;;;;;;;5146684;27;20758;-80
2021/06/06 12:01:54;;;;;;;31.77;21.40;;;;;;;;;;5177805;27;20452;-80
2021/06/06 12:04:27;;;;;;;26.17;19.17;;;;;;;;;;5187587;27;20620;-81
2021/06/06 12:06:54;;;;;;;29.00;20.70;;;;;;;;;;5187311;27;20473;-80
2021/06/06 12:09:24;;;;;;;26.37;18.70;;;;;;;;;;5190268;27;20464;-80
2021/06/06 12:11:54;;;;;;;24.60;18.43;;;;;;;;;;5189095;27;20495;-80
2021/06/06 12:14:22;;;;;;;26.30;19.67;;;;;;;;;;5188708;27;20463;-80
2021/06/06 12:16:52;;;;;;;25.63;19.20;;;;;;;;;;5188636;27;20463;-81
2021/06/06 12:19:21;;;;;;;23.60;18.93;;;;;;;;;;5187541;27;20765;-79
2021/06/06 12:21:49;;;;;;;22.90;18.37;;;;;;;;;;5187842;27;20534;-79
2021/06/06 12:24:18;;;;;;;23.40;17.30;;;;;;;;;;5185730;27;20520;-80
2021/06/06 12:26:48;;;;;;;28.03;18.93;;;;;;;;;;5188753;27;20857;-80
2021/06/06 12:29:24;;;;;;;21.13;18.23;;;;;;;;;;5148228;27;20462;-79
2021/06/06 12:31:52;;;;;;;28.13;19.33;;;;;;;;;;5147692;27;20449;-80
2021/06/06 12:34:21;;;;;;;25.20;19.00;;;;;;;;;;5148690;27;20473;-79
2021/06/06 12:36:49;;;;;;;27.00;20.23;;;;;;;;;;5149054;27;20441;-80
2021/06/06 12:39:18;;;;;;;28.00;19.47;;;;;;;;;;5150337;27;20462;-80
2021/06/06 12:41:46;;;;;;;29.47;20.20;;;;;;;;;;5148236;27;20548;-80
2021/06/06 12:44:14;;;;;;;25.80;20.20;;;;;;;;;;5148179;27;20485;-80
2021/06/06 12:46:50;;;;;;;24.53;20.07;;;;;;;;;;5149463;27;20530;-80
2021/06/06 12:49:17;;;;;;;26.20;21.43;;;;;;;;;;5148122;27;20904;-80
2021/06/06 12:51:47;;;;;;;24.43;20.13;;;;;;;;;;5165678;27;20448;-80
2021/06/06 12:54:16;;;;;;;25.60;19.57;;;;;;;;;;5169704;27;20461;-80
2021/06/06 12:56:44;;;;;;;24.23;19.53;;;;;;;;;;5169363;27;20520;-80
2021/06/06 12:59:13;;;;;;;25.40;19.17;;;;;;;;;;5171482;27;20464;-79
2021/06/06 13:01:41;;;;;;;24.80;19.73;;;;;;;;;;5169314;27;20472;-79
2021/06/06 13:04:18;;;;;;;21.83;18.23;;;;;;;;;;5170521;27;20621;-79
2021/06/06 13:06:46;;;;;;;24.17;19.07;;;;;;;;;;5169881;27;20461;-79
2021/06/06 13:09:19;;;;;;;23.30;20.20;;;;;;;;;;5170640;27;20466;-79
2021/06/06 13:11:47;;;;;;;24.07;18.10;;;;;;;;;;5172193;27;20445;-79
2021/06/06 13:14:21;;;;;;;23.37;19.57;;;;;;;;;;5151729;27;20478;-79
2021/06/06 13:16:54;;;;;;;23.93;18.50;;;;;;;;;;5148573;27;20454;-79
2021/06/06 13:19:24;;;;;;;19.80;16.30;;;;;;;;;;5149175;27;20484;-78
2021/06/06 13:22:06;;;;;;;22.47;19.30;;;;;;;;;;5146470;27;20517;-80
2021/06/06 13:24:34;;;;;;;23.57;18.60;;;;;;;;;;5147449;27;20513;-79
2021/06/06 13:27:02;;;;;;;26.87;20.03;;;;;;;;;;5147073;27;20525;-79
2021/06/06 13:29:34;;;;;;;22.13;18.00;;;;;;;;;;5147821;27;20476;-80
2021/06/06 13:32:03;;;;;;;24.30;19.37;;;;;;;;;;5148093;27;20582;-79
2021/06/06 13:34:32;;;;;;;24.60;17.90;;;;;;;;;;5146353;27;20474;-80
2021/06/06 13:37:00;;;;;;;21.80;17.40;;;;;;;;;;5146763;27;20887;-80
2021/06/06 13:39:29;;;;;;;23.63;17.50;;;;;;;;;;5147247;27;20479;-79
2021/06/06 13:41:57;;;;;;;21.80;16.93;;;;;;;;;;5146298;27;20564;-79
2021/06/06 13:44:24;;;;;;;23.23;16.90;;;;;;;;;;5146391;27;20510;-80
2021/06/06 13:46:51;;;;;;;23.43;17.30;;;;;;;;;;5145093;27;20521;-80
2021/06/06 13:49:19;;;;;;;22.40;18.53;;;;;;;;;;5145620;27;20461;-80
2021/06/06 13:51:47;;;;;;;25.67;19.10;;;;;;;;;;5146015;27;20604;-79
2021/06/06 13:54:15;;;;;;;24.57;18.80;;;;;;;;;;5143785;27;20606;-79
2021/06/06 13:56:42;;;;;;;25.53;20.00;;;;;;;;;;5147577;27;20461;-79
2021/06/06 13:59:09;;;;;;;22.00;19.17;;;;;;;;;;5147136;27;20764;-80
2021/06/06 14:01:37;;;;;;;24.30;20.33;;;;;;;;;;5148610;27;20489;-79
2021/06/06 14:04:05;;;;;;;20.97;18.10;;;;;;;;;;5147384;27;20551;-78
2021/06/06 14:06:32;;;;;;;22.00;17.83;;;;;;;;;;5144839;27;20477;-78
2021/06/06 14:09:01;;;;;;;24.43;19.70;;;;;;;;;;5147527;27;20488;-79
2021/06/06 14:11:30;;;;;;;24.10;19.23;;;;;;;;;;5145053;27;20568;-80
2021/06/06 14:13:58;;;;;;;22.53;18.20;;;;;;;;;;5147625;27;20470;-80
2021/06/06 14:16:26;;;;;;;23.60;18.83;;;;;;;;;;5147024;27;20522;-79
2021/06/06 14:18:54;;;;;;;22.50;18.83;;;;;;;;;;5146404;27;20548;-79
2021/06/06 14:21:22;;;;;;;21.30;17.97;;;;;;;;;;5147012;27;20453;-79
2021/06/06 14:23:52;;;;;;;20.40;17.10;;;;;;;;;;5146519;27;20545;-80
2021/06/06 14:26:21;;;;;;;25.57;18.73;;;;;;;;;;5146878;27;20537;-79